createdAt,value
2019-04-30T00:06:39.346Z,6.97
2019-04-30T00:09:28.635Z,6.87
2019-04-30T00:12:18.170Z,6.80
2019-04-30T00:15:11.120Z,6.80
2019-04-30T00:18:01.766Z,7.00
2019-04-30T00:20:49.331Z,6.70
2019-04-30T00:23:38.285Z,6.35
2019-04-30T00:28:55.358Z,6.75
2019-04-30T00:31:44.667Z,6.85
2019-04-30T00:34:39.176Z,7.17
2019-04-30T00:42:24.521Z,7.12
2019-04-30T00:45:10.082Z,7.15
2019-04-30T00:47:59.403Z,7.00
2019-04-30T00:53:16.531Z,7.08
2019-04-30T00:56:05.798Z,7.12
2019-04-30T00:58:57.651Z,6.78
2019-04-30T01:04:26.633Z,6.65
2019-04-30T01:09:39.639Z,6.35
2019-04-30T01:12:34.643Z,6.45
2019-04-30T01:15:22.108Z,5.85
2019-04-30T01:18:11.109Z,6.92
2019-04-30T01:21:03.067Z,6.45
2019-04-30T01:23:54.651Z,6.12
2019-04-30T01:26:44.181Z,6.28
2019-04-30T01:31:59.375Z,5.85
2019-04-30T01:34:52.708Z,6.28
2019-04-30T01:37:39.930Z,7.10
2019-04-30T01:40:31.408Z,6.62
2019-04-30T01:43:13.846Z,7.30
2019-04-30T01:45:56.297Z,7.03
2019-04-30T01:48:50.588Z,6.20
2019-04-30T01:51:38.696Z,6.75
2019-04-30T01:54:29.185Z,6.12
2019-04-30T01:57:13.124Z,6.40
2019-04-30T02:00:11.660Z,7.22
2019-04-30T02:03:01.491Z,6.60
2019-04-30T02:05:44.509Z,6.90
2019-04-30T02:08:27.216Z,6.47
2019-04-30T02:11:09.685Z,6.27
2019-04-30T02:13:52.993Z,6.60
2019-04-30T02:19:02.029Z,6.33
2019-04-30T02:21:51.371Z,6.17
2019-04-30T02:24:40.942Z,7.28
2019-04-30T02:27:23.866Z,6.58
2019-04-30T02:30:05.796Z,7.40
2019-04-30T02:35:25.834Z,5.90
2019-04-30T02:41:15.630Z,6.30
2019-04-30T02:46:44.349Z,6.70
2019-04-30T02:49:34.764Z,6.55
2019-04-30T02:52:26.382Z,6.42
2019-04-30T02:57:41.707Z,6.67
2019-04-30T03:00:32.843Z,6.28
2019-04-30T03:03:25.068Z,6.42
2019-04-30T03:06:13.009Z,6.78
2019-04-30T03:09:02.150Z,6.15
2019-04-30T03:11:51.445Z,6.72
2019-04-30T03:14:41.116Z,6.70
2019-04-30T03:20:32.632Z,6.28
2019-04-30T03:23:15.131Z,6.15
2019-04-30T03:26:04.873Z,7.20
2019-04-30T03:31:22.367Z,6.22
2019-04-30T03:34:17.999Z,7.83
2019-04-30T03:37:02.765Z,6.53
2019-04-30T03:39:51.969Z,6.83
2019-04-30T03:42:41.479Z,6.97
2019-04-30T03:45:31.176Z,6.92
2019-04-30T03:50:53.415Z,7.17
2019-04-30T03:53:39.718Z,6.92
2019-04-30T03:56:29.875Z,6.53
2019-04-30T03:59:20.164Z,5.90
2019-04-30T04:05:10.386Z,6.28
2019-04-30T04:08:01.840Z,6.97
2019-04-30T04:10:54.981Z,6.72
2019-04-30T04:13:40.034Z,6.43
2019-04-30T04:16:21.899Z,6.50
2019-04-30T04:21:39.161Z,8.80
2019-04-30T04:24:30.082Z,7.20
2019-04-30T04:27:19.452Z,7.20
2019-04-30T04:35:01.315Z,6.40
2019-04-30T04:37:50.316Z,5.70
2019-04-30T04:40:40.118Z,6.00
2019-04-30T04:45:55.030Z,5.87
2019-04-30T04:48:44.573Z,6.47
2019-04-30T04:51:38.662Z,6.45
2019-04-30T04:59:17.000Z,6.15
2019-04-30T05:02:09.898Z,6.78
2019-04-30T05:04:59.939Z,6.53
2019-04-30T05:12:41.858Z,6.30
2019-04-30T05:15:31.382Z,6.17
2019-04-30T05:18:22.670Z,6.15
2019-04-30T05:23:36.991Z,6.00
2019-04-30T05:26:28.588Z,5.55
2019-04-30T05:29:19.012Z,6.08
2019-04-30T05:34:35.028Z,6.03
2019-04-30T05:37:24.672Z,5.42
2019-04-30T05:40:14.370Z,6.92
2019-04-30T05:43:03.715Z,6.50
2019-04-30T05:45:52.920Z,6.05
2019-04-30T05:48:43.390Z,6.25
2019-04-30T05:56:24.622Z,5.75
2019-04-30T05:59:15.055Z,8.08
2019-04-30T06:02:04.355Z,6.10
2019-04-30T06:04:53.577Z,5.75
2019-04-30T06:07:43.108Z,6.92
2019-04-30T06:10:40.684Z,5.83
2019-04-30T06:13:32.124Z,6.53
2019-04-30T06:21:13.946Z,6.08
2019-04-30T06:24:03.690Z,7.40
2019-04-30T06:26:53.122Z,6.00
2019-04-30T06:29:42.789Z,5.65
2019-04-30T06:32:32.025Z,6.00
2019-04-30T06:35:23.057Z,5.83
2019-04-30T06:40:39.149Z,6.15
2019-04-30T06:43:22.537Z,6.15
2019-04-30T06:46:05.717Z,9.78
2019-04-30T06:48:50.571Z,5.90
2019-04-30T06:56:32.226Z,5.30
2019-04-30T06:59:21.903Z,11.70
2019-04-30T07:02:11.502Z,5.55
2019-04-30T07:07:37.113Z,5.15
2019-04-30T07:13:04.757Z,5.70
2019-04-30T07:18:20.236Z,7.20
2019-04-30T07:21:09.531Z,5.45
2019-04-30T07:23:59.708Z,5.60
2019-04-30T07:26:49.133Z,5.30
2019-04-30T07:29:39.264Z,14.53
2019-04-30T07:32:29.037Z,6.17
2019-04-30T07:35:19.871Z,4.92
2019-04-30T07:38:09.290Z,5.33
2019-04-30T07:40:59.208Z,5.25
2019-04-30T07:43:41.525Z,5.05
2019-04-30T07:46:35.086Z,6.05
2019-04-30T07:49:21.373Z,5.20
2019-04-30T07:52:12.195Z,4.65
2019-04-30T07:55:02.228Z,4.95
2019-04-30T07:57:52.019Z,5.35
2019-04-30T08:03:10.904Z,5.65
2019-04-30T08:06:02.072Z,4.63
2019-04-30T08:08:56.893Z,5.17
2019-04-30T08:11:43.702Z,4.20
2019-04-30T08:14:33.267Z,4.22
2019-04-30T08:17:22.529Z,4.87
2019-04-30T08:20:12.057Z,7.72
2019-04-30T08:23:13.328Z,4.65
2019-04-30T08:25:52.967Z,4.78
2019-04-30T08:28:44.269Z,5.10
2019-04-30T08:36:25.897Z,5.20
2019-04-30T08:39:15.657Z,5.05
2019-04-30T08:42:04.483Z,4.62
2019-04-30T08:47:21.264Z,4.58
2019-04-30T08:50:11.459Z,4.40
2019-04-30T08:53:00.512Z,4.30
2019-04-30T08:55:30.340Z,4.58
2019-04-30T09:03:11.052Z,4.28
2019-04-30T09:06:02.477Z,4.60
2019-04-30T09:08:51.868Z,4.85
2019-04-30T09:14:08.569Z,4.95
2019-04-30T09:16:59.410Z,4.53
2019-04-30T09:19:49.265Z,3.90
2019-04-30T09:25:04.020Z,4.40
2019-04-30T09:27:53.038Z,4.50
2019-04-30T09:30:42.201Z,4.17
2019-04-30T09:33:31.873Z,4.10
2019-04-30T09:36:21.631Z,4.20
2019-04-30T09:39:11.631Z,4.40
2019-04-30T09:42:00.433Z,4.25
2019-04-30T09:44:49.884Z,4.42
2019-04-30T09:47:41.876Z,4.17
2019-04-30T09:52:55.475Z,4.17
2019-04-30T09:55:45.150Z,5.33
2019-04-30T09:58:34.052Z,4.30
2019-04-30T10:01:22.690Z,4.12
2019-04-30T10:06:45.576Z,4.50
2019-04-30T10:09:35.215Z,4.30
2019-04-30T10:12:24.831Z,4.67
2019-04-30T10:15:14.979Z,4.62
2019-04-30T10:18:04.586Z,4.22
2019-04-30T10:20:58.904Z,4.45
2019-04-30T10:23:49.923Z,4.58
2019-04-30T10:26:39.206Z,4.05
2019-04-30T10:29:28.990Z,4.12
2019-04-30T10:32:18.842Z,4.60
2019-04-30T10:40:00.103Z,5.28
2019-04-30T10:42:49.568Z,4.58
2019-04-30T10:45:39.134Z,4.47
2019-04-30T10:48:28.276Z,4.47
2019-04-30T10:51:18.911Z,4.55
2019-04-30T10:54:08.900Z,3.90
2019-04-30T10:59:24.031Z,4.85
2019-04-30T11:02:13.908Z,4.12
2019-04-30T11:05:03.367Z,4.20
2019-04-30T11:07:51.960Z,3.80
2019-04-30T11:10:42.913Z,4.28
2019-04-30T11:13:32.340Z,4.05
2019-04-30T11:16:21.893Z,4.70
2019-04-30T11:19:10.856Z,5.20
2019-04-30T11:21:53.637Z,5.42
2019-04-30T11:27:20.197Z,4.37
2019-04-30T11:30:20.203Z,4.70
2019-04-30T11:33:00.609Z,4.30
2019-04-30T11:40:44.795Z,4.05
2019-04-30T11:43:34.598Z,4.30
2019-04-30T11:46:42.528Z,4.75
2019-04-30T11:49:32.677Z,4.37
2019-04-30T11:52:22.028Z,4.30
2019-04-30T11:57:37.202Z,3.80
2019-04-30T12:00:30.466Z,6.70
2019-04-30T12:03:20.039Z,4.85
2019-04-30T12:11:05.394Z,4.30
2019-04-30T12:13:54.958Z,4.17
2019-04-30T12:16:44.308Z,4.47
2019-04-30T12:24:25.799Z,5.08
2019-04-30T12:27:15.450Z,4.90
2019-04-30T12:30:04.797Z,4.62
2019-04-30T12:32:53.544Z,4.60
2019-04-30T12:35:42.403Z,4.30
2019-04-30T12:38:31.959Z,3.80
2019-04-30T12:43:47.308Z,4.62
2019-04-30T12:46:38.633Z,4.33
2019-04-30T12:49:05.527Z,4.50
2019-04-30T12:52:02.496Z,4.20
2019-04-30T12:54:59.142Z,4.75
2019-04-30T12:57:58.802Z,4.45
2019-04-30T13:03:07.515Z,6.50
2019-04-30T13:05:58.412Z,4.10
2019-04-30T13:08:26.628Z,3.90
2019-04-30T13:11:16.609Z,4.20
2019-04-30T13:14:07.017Z,8.50
2019-04-30T13:16:35.153Z,5.08
2019-04-30T13:19:24.879Z,3.87
2019-04-30T13:22:14.704Z,3.80
2019-04-30T13:25:03.959Z,4.67
2019-04-30T13:27:55.572Z,3.95
2019-04-30T13:30:45.649Z,8.90
2019-04-30T13:33:39.604Z,5.28
2019-04-30T13:41:29.733Z,10.70
2019-04-30T13:44:20.237Z,5.37
2019-04-30T13:47:10.949Z,5.78
2019-04-30T13:50:00.711Z,4.72
2019-04-30T13:52:49.855Z,4.70
2019-04-30T13:55:45.610Z,4.92
2019-04-30T13:58:30.638Z,4.25
2019-04-30T14:01:21.414Z,4.72
2019-04-30T14:04:12.447Z,4.20
2019-04-30T14:07:05.680Z,4.33
2019-04-30T14:09:55.095Z,5.42
2019-04-30T14:12:46.245Z,4.30
2019-04-30T14:15:36.288Z,4.42
2019-04-30T14:18:30.618Z,4.53
2019-04-30T14:26:09.792Z,3.62
2019-04-30T14:28:59.536Z,9.63
2019-04-30T14:31:48.846Z,3.70
2019-04-30T14:34:39.507Z,3.95
2019-04-30T14:37:31.857Z,4.05
2019-04-30T14:40:22.543Z,4.92
2019-04-30T14:48:36.220Z,3.90
2019-04-30T14:51:26.777Z,3.92
2019-04-30T14:54:32.232Z,4.35
2019-04-30T14:57:38.345Z,3.70
2019-04-30T15:00:39.585Z,3.95
2019-04-30T15:03:31.519Z,3.80
2019-04-30T15:06:20.167Z,3.62
2019-04-30T15:09:09.749Z,3.75
2019-04-30T15:11:59.335Z,6.22
2019-04-30T15:14:49.303Z,8.65
2019-04-30T15:17:41.221Z,6.95
2019-04-30T15:20:30.859Z,4.60
2019-04-30T15:23:31.267Z,4.85
2019-04-30T15:26:24.480Z,4.22
2019-04-30T15:29:15.896Z,5.22
2019-04-30T15:32:04.484Z,4.65
2019-04-30T15:34:54.233Z,5.78
2019-04-30T15:37:38.519Z,6.28
2019-04-30T15:40:21.238Z,5.08
2019-04-30T15:43:04.886Z,3.70
2019-04-30T15:48:24.838Z,6.45
2019-04-30T15:51:08.990Z,4.08
2019-04-30T15:53:58.041Z,4.30
2019-04-30T15:56:43.714Z,4.60
2019-04-30T15:59:25.305Z,4.22
2019-04-30T16:02:09.577Z,6.80
2019-04-30T16:04:57.448Z,4.25
2019-04-30T16:07:40.755Z,3.95
2019-04-30T16:10:21.511Z,5.95
2019-04-30T16:13:05.952Z,3.98
2019-04-30T16:15:42.466Z,4.30
2019-04-30T16:18:24.679Z,4.22
2019-04-30T16:21:09.193Z,4.37
2019-04-30T16:23:58.504Z,6.22
2019-04-30T16:26:49.007Z,3.77
2019-04-30T16:29:19.460Z,5.90
2019-04-30T16:32:01.728Z,5.60
2019-04-30T16:34:38.953Z,5.50
2019-04-30T16:37:21.934Z,4.35
2019-04-30T16:39:58.065Z,5.40
2019-04-30T16:42:39.852Z,4.50
2019-04-30T16:45:16.144Z,4.10
2019-04-30T16:47:59.600Z,4.58
2019-04-30T16:50:35.484Z,4.90
2019-04-30T16:53:17.468Z,4.80
2019-04-30T16:55:54.090Z,5.08
2019-04-30T16:58:39.000Z,6.20
2019-04-30T17:01:17.016Z,6.92
2019-04-30T17:04:01.619Z,5.97
2019-04-30T17:06:55.929Z,7.37
2019-04-30T17:09:43.383Z,5.53
2019-04-30T17:12:20.788Z,5.60
2019-04-30T17:15:04.751Z,6.30
2019-04-30T17:17:40.793Z,4.30
2019-04-30T17:20:23.384Z,4.90
2019-04-30T17:22:59.946Z,5.10
2019-04-30T17:25:43.035Z,6.47
2019-04-30T17:28:19.179Z,5.95
2019-04-30T17:31:02.521Z,6.12
2019-04-30T17:33:45.413Z,8.05
2019-04-30T17:36:34.890Z,7.80
2019-04-30T17:39:19.145Z,7.17
2019-04-30T17:41:55.909Z,7.87
2019-04-30T17:44:39.784Z,6.70
2019-04-30T17:47:16.191Z,8.88
2019-04-30T17:49:58.884Z,6.28
2019-04-30T17:52:35.451Z,6.83
2019-04-30T17:55:19.362Z,8.43
2019-04-30T17:58:02.263Z,8.20
2019-04-30T18:00:48.651Z,9.88
2019-04-30T18:03:24.724Z,7.17
2019-04-30T18:06:10.664Z,7.58
2019-04-30T18:08:47.448Z,7.20
2019-04-30T18:11:30.527Z,7.08
2019-04-30T18:14:13.213Z,6.85
2019-04-30T18:16:51.030Z,8.23
2019-04-30T18:19:51.355Z,8.35
2019-04-30T18:22:59.288Z,8.95
2019-04-30T18:25:50.587Z,8.18
2019-04-30T18:28:26.576Z,9.23
2019-04-30T18:31:09.853Z,9.13
2019-04-30T18:33:52.003Z,8.53
2019-04-30T18:36:34.639Z,8.53
2019-04-30T18:39:11.118Z,10.58
2019-04-30T18:41:54.552Z,8.10
2019-04-30T18:44:44.650Z,7.03
2019-04-30T18:47:26.943Z,6.53
2019-04-30T18:50:12.602Z,8.58
2019-04-30T18:53:04.460Z,7.15
2019-04-30T18:55:55.144Z,6.95
2019-04-30T18:58:42.935Z,7.00
2019-04-30T19:01:17.997Z,6.97
2019-04-30T19:04:01.610Z,8.43
2019-04-30T19:06:38.694Z,6.55
2019-04-30T19:09:40.165Z,6.75
2019-04-30T19:12:39.034Z,9.85
2019-04-30T19:15:40.919Z,10.93
2019-04-30T19:18:20.218Z,10.35
2019-04-30T19:21:04.660Z,10.08
2019-04-30T19:23:40.561Z,8.00
2019-04-30T19:26:23.786Z,7.90
2019-04-30T19:29:00.180Z,8.53
2019-04-30T19:31:42.683Z,6.92
2019-04-30T19:34:19.545Z,5.60
2019-04-30T19:37:02.387Z,5.72
2019-04-30T19:39:39.249Z,5.73
2019-04-30T19:42:21.963Z,6.62
2019-04-30T19:45:09.401Z,7.25
2019-04-30T19:47:45.646Z,6.22
2019-04-30T19:50:35.523Z,7.30
2019-04-30T19:53:24.171Z,6.37
2019-04-30T19:56:13.767Z,7.00
2019-04-30T19:59:05.665Z,7.83
2019-04-30T20:01:54.731Z,7.90
2019-04-30T20:04:44.756Z,7.28
2019-04-30T20:07:34.477Z,7.67
2019-04-30T20:10:23.810Z,9.13
2019-04-30T20:13:13.146Z,9.70
2019-04-30T20:16:02.664Z,9.45
2019-04-30T20:18:52.202Z,13.20
2019-04-30T20:24:07.723Z,24.85
2019-04-30T20:27:04.978Z,25.95
2019-04-30T20:29:51.722Z,16.02
2019-04-30T20:32:40.318Z,13.25
2019-04-30T20:35:29.912Z,11.00
2019-04-30T20:38:37.725Z,14.93
2019-04-30T20:44:00.570Z,11.28
2019-04-30T20:46:49.489Z,8.68
2019-04-30T20:49:39.189Z,8.70
2019-04-30T20:52:29.021Z,9.05
2019-04-30T20:55:19.182Z,11.78
2019-04-30T20:58:09.475Z,11.15
2019-04-30T21:01:03.549Z,12.73
2019-04-30T21:06:24.543Z,13.32
2019-04-30T21:09:14.632Z,12.65
2019-04-30T21:12:04.184Z,12.28
2019-04-30T21:17:19.530Z,12.75
2019-04-30T21:20:09.692Z,13.75
2019-04-30T21:22:59.655Z,11.53
2019-04-30T21:25:49.478Z,11.25
2019-04-30T21:28:39.346Z,11.50
2019-04-30T21:31:43.228Z,12.58
2019-04-30T21:39:45.699Z,12.78
2019-04-30T21:42:34.431Z,12.50
2019-04-30T21:45:23.903Z,12.23
2019-04-30T21:48:13.205Z,13.90
2019-04-30T21:51:02.532Z,14.00
2019-04-30T21:53:52.134Z,13.05
2019-04-30T21:59:07.272Z,14.03
2019-04-30T22:01:57.289Z,13.32
2019-04-30T22:04:46.119Z,13.62
2019-04-30T22:07:35.182Z,15.13
2019-04-30T22:10:24.007Z,14.25
2019-04-30T22:13:12.769Z,14.15
2019-04-30T22:16:01.713Z,14.95
2019-04-30T22:18:51.300Z,14.15
2019-04-30T22:21:40.623Z,15.95
2019-04-30T22:26:55.893Z,14.87
2019-04-30T22:29:45.012Z,14.13
2019-04-30T22:32:34.862Z,14.10
2019-04-30T22:37:50.647Z,16.00
2019-04-30T22:40:40.406Z,17.73
2019-04-30T22:43:29.015Z,18.02
2019-04-30T22:46:22.309Z,17.00
2019-04-30T22:51:46.613Z,16.60
2019-04-30T22:54:36.403Z,16.90
2019-04-30T22:57:25.911Z,16.27
2019-04-30T23:02:43.360Z,16.17
2019-04-30T23:05:32.246Z,14.43
2019-04-30T23:08:21.296Z,12.93
2019-04-30T23:11:11.098Z,13.18
2019-04-30T23:14:00.553Z,13.10
2019-04-30T23:16:50.204Z,12.63
2019-04-30T23:22:05.084Z,13.30
2019-04-30T23:24:54.220Z,14.38
2019-04-30T23:27:43.125Z,14.55
2019-04-30T23:30:32.076Z,14.65
2019-04-30T23:33:21.538Z,14.23
2019-04-30T23:36:10.918Z,12.70
2019-04-30T23:39:00.376Z,12.70
2019-04-30T23:41:49.643Z,11.45
2019-04-30T23:44:38.820Z,11.70
2019-04-30T23:47:28.088Z,12.30
2019-04-30T23:50:19.078Z,11.85
2019-04-30T23:53:09.012Z,12.45
2019-04-30T23:58:25.136Z,12.98
